createdAt,value
2018-01-17T00:00:03.830Z,0
2018-01-17T00:00:44.259Z,0
2018-01-17T00:02:59.174Z,0
2018-01-17T00:03:39.386Z,0
2018-01-17T00:04:19.781Z,0
2018-01-17T00:06:34.536Z,0
2018-01-17T00:07:13.958Z,0
2018-01-17T00:07:54.343Z,0
2018-01-17T00:08:34.739Z,0
2018-01-17T00:09:15.148Z,0
2018-01-17T00:09:55.556Z,0
2018-01-17T00:10:35.949Z,0
2018-01-17T00:11:16.337Z,0
2018-01-17T00:11:56.732Z,0
2018-01-17T00:12:37.138Z,0
2018-01-17T00:13:17.553Z,0
2018-01-17T00:13:57.987Z,0
2018-01-17T00:14:38.382Z,0
2018-01-17T00:15:19.004Z,0
2018-01-17T00:15:59.380Z,0
2018-01-17T00:16:39.837Z,0
2018-01-17T00:17:20.251Z,0
2018-01-17T00:18:00.638Z,0
2018-01-17T00:18:41.038Z,0
2018-01-17T00:19:21.444Z,0
2018-01-17T00:20:01.791Z,0
2018-01-17T00:20:42.285Z,0
2018-01-17T00:21:22.603Z,0
2018-01-17T00:22:03.011Z,0
2018-01-17T00:22:43.394Z,0
2018-01-17T00:23:23.887Z,0
2018-01-17T00:24:04.293Z,0
2018-01-17T00:24:44.693Z,0
2018-01-17T00:25:25.097Z,0
2018-01-17T00:26:05.515Z,0
2018-01-17T00:26:45.935Z,0
2018-01-17T00:27:26.291Z,0
2018-01-17T00:28:06.660Z,0
2018-01-17T00:28:47.607Z,0
2018-01-17T00:29:28.214Z,0
2018-01-17T00:30:08.616Z,0
2018-01-17T00:30:48.999Z,0
2018-01-17T00:31:29.375Z,0
2018-01-17T00:33:49.108Z,0
2018-01-17T00:34:29.926Z,0
2018-01-17T00:35:10.312Z,0
2018-01-17T00:35:50.753Z,0
2018-01-17T00:36:31.164Z,0
2018-01-17T00:37:11.564Z,0
2018-01-17T00:37:51.995Z,0
2018-01-17T00:38:32.350Z,0
2018-01-17T00:39:12.768Z,0
2018-01-17T00:39:53.179Z,0
2018-01-17T00:40:33.629Z,0
2018-01-17T00:41:13.976Z,0
2018-01-17T00:41:54.378Z,0
2018-01-17T00:42:34.819Z,0
2018-01-17T00:43:16.532Z,0
2018-01-17T00:45:33.907Z,0
2018-01-17T00:46:14.484Z,0
2018-01-17T00:46:54.850Z,0
2018-01-17T00:47:35.263Z,0
2018-01-17T00:48:15.662Z,0
2018-01-17T00:48:56.099Z,0
2018-01-17T00:49:36.481Z,0
2018-01-17T00:50:16.884Z,0
2018-01-17T00:50:57.284Z,0
2018-01-17T00:51:37.683Z,0
2018-01-17T00:52:18.081Z,0
2018-01-17T00:52:58.533Z,0
2018-01-17T00:53:38.912Z,0
2018-01-17T00:54:19.260Z,0
2018-01-17T00:54:59.657Z,0
2018-01-17T00:55:40.034Z,0
2018-01-17T00:56:20.585Z,0
2018-01-17T00:57:00.842Z,0
2018-01-17T00:57:41.255Z,0
2018-01-17T00:58:21.804Z,0
2018-01-17T00:59:02.341Z,0
2018-01-17T00:59:42.696Z,0
2018-01-17T01:00:23.586Z,0
2018-01-17T01:01:04.328Z,0
2018-01-17T01:01:44.849Z,0
2018-01-17T01:02:25.263Z,0
2018-01-17T01:03:05.668Z,0
2018-01-17T01:03:46.637Z,0
2018-01-17T01:04:27.056Z,0
2018-01-17T01:05:07.445Z,0
2018-01-17T01:05:48.185Z,0
2018-01-17T01:06:28.501Z,0
2018-01-17T01:07:08.929Z,0
2018-01-17T01:07:49.556Z,0
2018-01-17T01:08:29.952Z,0
2018-01-17T01:09:10.357Z,0
2018-01-17T01:09:50.981Z,0
2018-01-17T01:10:31.638Z,0
2018-01-17T01:11:12.078Z,0
2018-01-17T01:11:53.285Z,0
2018-01-17T01:12:33.757Z,0
2018-01-17T01:13:14.118Z,0
2018-01-17T01:13:54.849Z,0
2018-01-17T01:14:35.089Z,0
2018-01-17T01:15:15.401Z,0
2018-01-17T01:15:55.955Z,0
2018-01-17T01:16:36.493Z,0
2018-01-17T01:17:16.835Z,0
2018-01-17T01:17:57.239Z,0
2018-01-17T01:18:37.629Z,0
2018-01-17T01:19:18.258Z,0
2018-01-17T01:19:58.587Z,0
2018-01-17T01:20:39.107Z,0
2018-01-17T01:21:19.634Z,0
2018-01-17T01:22:00.405Z,0
2018-01-17T01:22:40.812Z,0
2018-01-17T01:23:21.199Z,0
2018-01-17T01:24:01.633Z,0
2018-01-17T01:24:42.001Z,0
2018-01-17T01:25:22.438Z,0
2018-01-17T01:26:02.890Z,0
2018-01-17T01:26:43.518Z,0
2018-01-17T01:27:23.830Z,0
2018-01-17T01:28:04.307Z,0
2018-01-17T01:28:44.794Z,0
2018-01-17T01:29:25.266Z,0
2018-01-17T01:30:05.725Z,0
2018-01-17T01:30:46.536Z,0
2018-01-17T01:31:26.778Z,0
2018-01-17T01:32:07.138Z,0
2018-01-17T01:32:47.591Z,0
2018-01-17T01:33:27.962Z,0
2018-01-17T01:34:08.377Z,0
2018-01-17T01:34:48.758Z,0
2018-01-17T01:35:29.280Z,0
2018-01-17T01:36:09.641Z,0
2018-01-17T01:36:50.199Z,0
2018-01-17T01:37:30.609Z,0
2018-01-17T01:38:10.993Z,0
2018-01-17T01:38:51.569Z,0
2018-01-17T01:39:31.963Z,0
2018-01-17T01:40:12.344Z,0
2018-01-17T01:40:52.730Z,0
2018-01-17T01:43:22.343Z,0
2018-01-17T01:44:03.430Z,0
2018-01-17T01:44:43.457Z,0
2018-01-17T01:45:23.893Z,0
2018-01-17T01:46:04.383Z,0
2018-01-17T01:46:44.709Z,0
2018-01-17T01:47:25.818Z,0
2018-01-17T01:48:06.494Z,0
2018-01-17T01:48:46.943Z,0
2018-01-17T01:49:27.401Z,0
2018-01-17T01:50:08.164Z,0
2018-01-17T01:50:48.581Z,0
2018-01-17T01:51:29.028Z,0
2018-01-17T01:52:09.809Z,0
2018-01-17T01:52:50.685Z,0
2018-01-17T01:53:31.218Z,0
2018-01-17T01:54:11.753Z,0
2018-01-17T01:54:52.239Z,0
2018-01-17T01:55:32.547Z,0
2018-01-17T01:56:12.995Z,0
2018-01-17T01:56:53.447Z,0
2018-01-17T01:57:33.837Z,0
2018-01-17T01:58:14.260Z,0
2018-01-17T01:58:54.614Z,0
2018-01-17T01:59:35.163Z,0
2018-01-17T02:00:15.590Z,0
2018-01-17T02:00:56.357Z,0
2018-01-17T02:01:36.686Z,0
2018-01-17T02:02:17.088Z,0
2018-01-17T02:02:57.557Z,0
2018-01-17T02:03:38.053Z,0
2018-01-17T02:04:18.627Z,0
2018-01-17T02:04:59.195Z,0
2018-01-17T02:05:39.651Z,0
2018-01-17T02:06:20.194Z,0
2018-01-17T02:07:00.742Z,0
2018-01-17T02:07:41.080Z,0
2018-01-17T02:08:21.423Z,0
2018-01-17T02:09:01.957Z,0
2018-01-17T02:09:42.226Z,0
2018-01-17T02:10:22.598Z,0
2018-01-17T02:11:03.078Z,0
2018-01-17T02:11:43.459Z,0
2018-01-17T02:12:23.901Z,0
2018-01-17T02:13:04.505Z,0
2018-01-17T02:13:44.916Z,0
2018-01-17T02:14:25.657Z,0
2018-01-17T02:15:06.261Z,0
2018-01-17T02:15:46.626Z,0
2018-01-17T02:16:27.583Z,0
2018-01-17T02:17:08.360Z,0
2018-01-17T02:17:48.791Z,0
2018-01-17T02:18:29.095Z,0
2018-01-17T02:19:09.512Z,0
2018-01-17T02:19:49.910Z,0
2018-01-17T02:20:30.454Z,0
2018-01-17T02:21:10.809Z,0
2018-01-17T02:21:51.271Z,0
2018-01-17T02:22:31.599Z,0
2018-01-17T02:23:12.001Z,0
2018-01-17T02:23:52.428Z,0
2018-01-17T02:24:33.069Z,0
2018-01-17T02:25:13.523Z,0
2018-01-17T02:25:53.885Z,0
2018-01-17T02:26:34.519Z,0
2018-01-17T02:27:15.232Z,0
2018-01-17T02:27:55.480Z,0
2018-01-17T02:28:35.901Z,0
2018-01-17T02:29:16.584Z,0
2018-01-17T02:29:56.790Z,0
2018-01-17T02:32:00.604Z,0
2018-01-17T02:32:37.968Z,0
2018-01-17T02:33:18.738Z,0
2018-01-17T02:33:58.908Z,0
2018-01-17T02:34:39.793Z,0
2018-01-17T02:35:20.119Z,0
2018-01-17T02:36:00.589Z,0
2018-01-17T02:36:41.114Z,0
2018-01-17T02:37:21.596Z,0
2018-01-17T02:38:02.193Z,0
2018-01-17T02:38:44.374Z,0
2018-01-17T02:39:25.043Z,0
2018-01-17T02:40:05.552Z,0
2018-01-17T02:40:47.012Z,0
2018-01-17T02:41:27.680Z,0
2018-01-17T02:42:08.457Z,0
2018-01-17T02:42:48.836Z,0
2018-01-17T02:43:30.191Z,0
2018-01-17T02:44:10.554Z,0
2018-01-17T02:44:51.658Z,0
2018-01-17T02:45:31.942Z,0
2018-01-17T02:46:12.414Z,0
2018-01-17T02:46:52.768Z,0
2018-01-17T02:47:33.587Z,0
2018-01-17T02:48:15.484Z,0
2018-01-17T02:48:57.870Z,0
2018-01-17T02:49:39.635Z,0
2018-01-17T02:50:20.968Z,0
2018-01-17T02:51:09.611Z,0
2018-01-17T02:51:49.949Z,0
2018-01-17T02:52:30.775Z,0
2018-01-17T02:53:11.798Z,0
2018-01-17T02:53:52.589Z,0
2018-01-17T02:54:32.942Z,0
2018-01-17T02:55:14.142Z,0
2018-01-17T02:55:54.831Z,0
2018-01-17T02:56:35.937Z,0
2018-01-17T02:57:16.839Z,0
2018-01-17T02:57:58.125Z,0
2018-01-17T02:58:39.008Z,0
2018-01-17T02:59:19.984Z,0
2018-01-17T03:00:00.155Z,0
2018-01-17T03:00:40.852Z,0
2018-01-17T03:01:21.765Z,0
2018-01-17T03:02:02.563Z,0
2018-01-17T03:02:43.209Z,0
2018-01-17T03:03:23.728Z,0
2018-01-17T03:04:04.070Z,0
2018-01-17T03:04:44.576Z,0
2018-01-17T03:05:26.156Z,0
2018-01-17T03:06:06.585Z,0
2018-01-17T03:06:46.935Z,0
2018-01-17T03:10:06.939Z,0
2018-01-17T03:10:46.896Z,0
2018-01-17T03:11:27.569Z,0
2018-01-17T03:12:07.797Z,0
2018-01-17T03:12:48.292Z,0
2018-01-17T03:13:28.812Z,0
2018-01-17T03:14:09.216Z,0
2018-01-17T03:14:49.656Z,0
2018-01-17T03:15:30.225Z,0
2018-01-17T03:16:10.630Z,0
2018-01-17T03:16:51.182Z,0
2018-01-17T03:17:31.522Z,0
2018-01-17T03:18:11.870Z,0
2018-01-17T03:18:52.238Z,0
2018-01-17T03:21:11.278Z,0
2018-01-17T03:21:51.161Z,0
2018-01-17T03:22:31.468Z,0
2018-01-17T03:23:11.930Z,0
2018-01-17T03:23:52.624Z,0
2018-01-17T03:24:33.142Z,0
2018-01-17T03:25:13.627Z,0
2018-01-17T03:25:54.001Z,0
2018-01-17T03:26:34.529Z,0
2018-01-17T03:27:15.308Z,0
2018-01-17T03:27:55.834Z,0
2018-01-17T03:28:36.555Z,0
2018-01-17T03:29:16.870Z,0
2018-01-17T03:29:57.295Z,0
2018-01-17T03:30:37.824Z,0
2018-01-17T03:31:18.363Z,0
2018-01-17T03:31:59.049Z,0
2018-01-17T03:32:39.182Z,0
2018-01-17T03:33:19.580Z,0
2018-01-17T03:33:59.987Z,0
2018-01-17T03:34:40.397Z,0
2018-01-17T03:35:20.890Z,0
2018-01-17T03:36:01.401Z,0
2018-01-17T03:36:41.814Z,0
2018-01-17T03:37:22.309Z,0
2018-01-17T03:38:02.809Z,0
2018-01-17T03:38:43.206Z,0
2018-01-17T03:39:23.698Z,0
2018-01-17T03:40:04.065Z,0
2018-01-17T03:40:45.047Z,0
2018-01-17T03:41:25.099Z,0
2018-01-17T03:42:05.635Z,0
2018-01-17T03:42:45.971Z,0
2018-01-17T03:43:26.309Z,0
2018-01-17T03:44:06.715Z,0
2018-01-17T03:44:47.171Z,0
2018-01-17T03:45:27.719Z,0
2018-01-17T03:46:08.003Z,0
2018-01-17T03:46:48.676Z,0
2018-01-17T03:47:29.226Z,0
2018-01-17T03:48:09.640Z,0
2018-01-17T03:48:50.049Z,0
2018-01-17T03:49:30.424Z,0
2018-01-17T03:50:10.814Z,0
2018-01-17T03:50:51.255Z,0
2018-01-17T03:51:31.616Z,0
2018-01-17T03:52:12.471Z,0
2018-01-17T03:52:53.014Z,0
2018-01-17T03:53:33.206Z,0
2018-01-17T03:54:13.616Z,0
2018-01-17T03:54:53.982Z,0
2018-01-17T03:55:34.564Z,0
2018-01-17T03:56:14.931Z,0
2018-01-17T03:56:55.283Z,0
2018-01-17T03:57:35.674Z,0
2018-01-17T03:58:16.362Z,0
2018-01-17T03:58:57.070Z,0
2018-01-17T03:59:37.357Z,0
2018-01-17T04:00:17.734Z,0
2018-01-17T04:00:58.127Z,0
2018-01-17T04:01:38.756Z,0
2018-01-17T04:42:25.608Z,0
2018-01-17T04:43:06.115Z,0
2018-01-17T04:43:46.498Z,0
2018-01-17T04:44:26.924Z,0
2018-01-17T04:45:07.342Z,0
2018-01-17T04:45:47.982Z,0
2018-01-17T04:46:28.433Z,0
2018-01-17T04:47:08.929Z,0
2018-01-17T04:47:49.258Z,0
2018-01-17T04:48:29.740Z,0
2018-01-17T04:49:10.307Z,0
2018-01-17T04:49:50.739Z,0
2018-01-17T04:50:31.188Z,0
2018-01-17T04:51:11.617Z,0
2018-01-17T04:51:52.028Z,0
2018-01-17T04:52:32.677Z,0
2018-01-17T04:53:13.100Z,0
2018-01-17T04:53:53.381Z,0
2018-01-17T04:54:33.836Z,0
2018-01-17T04:55:14.218Z,0
2018-01-17T04:57:59.648Z,0
2018-01-17T04:58:52.739Z,0
2018-01-17T04:59:44.914Z,0
2018-01-17T05:00:37.912Z,0
2018-01-17T05:01:31.582Z,0
2018-01-17T05:02:21.520Z,0
2018-01-17T05:03:04.371Z,0
2018-01-17T05:03:45.572Z,0
2018-01-17T05:04:26.181Z,0
2018-01-17T05:05:07.022Z,0
2018-01-17T05:05:48.147Z,0
2018-01-17T05:06:28.681Z,0
2018-01-17T05:07:11.796Z,0
2018-01-17T05:07:55.795Z,0
2018-01-17T05:08:37.886Z,0
2018-01-17T05:09:19.439Z,0
2018-01-17T05:10:01.759Z,0
2018-01-17T05:10:42.958Z,0
2018-01-17T05:11:26.713Z,0
2018-01-17T05:12:08.716Z,0
2018-01-17T05:12:52.073Z,0
2018-01-17T05:13:37.755Z,0
2018-01-17T05:14:20.196Z,0
2018-01-17T05:15:01.710Z,0
2018-01-17T05:15:42.891Z,0
2018-01-17T05:16:35.816Z,0
2018-01-17T05:17:16.422Z,0
2018-01-17T05:17:57.975Z,0
2018-01-17T05:18:39.637Z,0
2018-01-17T05:19:20.480Z,0
2018-01-17T05:20:03.979Z,0
2018-01-17T05:20:46.484Z,0
2018-01-17T05:21:28.802Z,0
2018-01-17T05:22:10.439Z,0
2018-01-17T05:22:52.873Z,0
2018-01-17T05:23:35.462Z,0
2018-01-17T05:24:16.582Z,0
2018-01-17T05:24:58.456Z,0
2018-01-17T05:25:38.747Z,0
2018-01-17T05:26:20.393Z,0
2018-01-17T05:27:02.812Z,0
2018-01-17T05:27:44.193Z,0
2018-01-17T05:28:25.644Z,0
2018-01-17T05:29:06.279Z,0
2018-01-17T05:29:49.045Z,0
2018-01-17T05:30:31.135Z,0
2018-01-17T05:31:12.598Z,0
2018-01-17T05:31:53.085Z,0
2018-01-17T05:32:33.474Z,0
2018-01-17T05:33:14.263Z,0
2018-01-17T05:33:55.448Z,0
2018-01-17T05:34:36.724Z,0
2018-01-17T05:35:17.698Z,0
2018-01-17T05:35:58.449Z,0
2018-01-17T05:36:39.051Z,0
2018-01-17T05:37:19.542Z,0
2018-01-17T05:38:00.816Z,0
2018-01-17T05:38:42.793Z,0
2018-01-17T05:39:23.379Z,0
2018-01-17T05:40:03.790Z,0
2018-01-17T05:40:44.092Z,0
2018-01-17T05:41:25.755Z,0
2018-01-17T05:42:06.182Z,0
2018-01-17T05:42:46.965Z,0
2018-01-17T05:43:28.092Z,0
2018-01-17T05:44:08.606Z,0
2018-01-17T05:44:49.274Z,0
2018-01-17T05:45:29.699Z,0
2018-01-17T05:46:11.771Z,0
2018-01-17T05:46:53.929Z,0
2018-01-17T05:47:34.361Z,0
2018-01-17T05:48:15.722Z,0
2018-01-17T05:48:58.502Z,0
2018-01-17T05:49:39.483Z,0
2018-01-17T05:50:20.096Z,0
2018-01-17T05:51:00.670Z,0
2018-01-17T05:51:42.523Z,0
2018-01-17T05:52:22.899Z,0
2018-01-17T05:53:04.567Z,0
2018-01-17T05:53:44.832Z,0
2018-01-17T05:54:25.276Z,0
2018-01-17T05:55:05.614Z,0
2018-01-17T05:55:46.000Z,0
2018-01-17T05:56:26.440Z,0
2018-01-17T05:57:06.860Z,0
2018-01-17T05:57:47.203Z,0
2018-01-17T05:58:27.586Z,0
2018-01-17T05:59:08.031Z,0
2018-01-17T05:59:48.443Z,0
2018-01-17T06:00:28.813Z,0
2018-01-17T06:01:09.295Z,0
2018-01-17T06:01:49.645Z,0
2018-01-17T06:02:30.090Z,0
2018-01-17T06:03:10.465Z,0
2018-01-17T06:03:50.773Z,0
2018-01-17T06:04:31.207Z,0
2018-01-17T06:05:11.646Z,0
2018-01-17T06:05:52.105Z,0
2018-01-17T06:06:32.445Z,0
2018-01-17T06:07:13.413Z,0
2018-01-17T06:07:54.611Z,0
2018-01-17T06:08:35.624Z,0
2018-01-17T06:09:16.221Z,0
2018-01-17T06:09:57.610Z,0
2018-01-17T06:10:38.152Z,0
2018-01-17T06:11:19.116Z,0
2018-01-17T06:13:39.197Z,0
2018-01-17T06:14:21.221Z,0
2018-01-17T06:15:02.145Z,0
2018-01-17T06:15:42.305Z,0
2018-01-17T06:16:24.355Z,0
2018-01-17T06:17:04.742Z,0
2018-01-17T06:19:40.891Z,0
2018-01-17T06:20:21.428Z,0
2018-01-17T06:21:02.964Z,0
2018-01-17T06:21:43.111Z,0
2018-01-17T06:22:25.168Z,0
2018-01-17T06:23:06.465Z,0
2018-01-17T06:23:47.256Z,0
2018-01-17T06:24:28.011Z,0
2018-01-17T06:25:09.022Z,0
2018-01-17T06:25:50.012Z,0
2018-01-17T06:26:30.460Z,0
2018-01-17T06:27:11.900Z,0
2018-01-17T06:27:52.244Z,0
2018-01-17T06:28:32.468Z,0
2018-01-17T06:29:12.907Z,0
2018-01-17T06:29:53.312Z,0
2018-01-17T06:30:33.732Z,0
2018-01-17T06:31:14.097Z,0
2018-01-17T06:31:54.837Z,0
2018-01-17T06:32:35.279Z,0
2018-01-17T06:33:15.808Z,0
2018-01-17T06:33:56.185Z,0
2018-01-17T06:34:36.608Z,0
2018-01-17T06:35:16.945Z,0
2018-01-17T06:35:57.398Z,0
2018-01-17T06:36:37.823Z,0
2018-01-17T06:37:18.171Z,0
2018-01-17T06:37:58.684Z,0
2018-01-17T06:38:39.164Z,0
2018-01-17T06:39:19.575Z,0
2018-01-17T06:39:59.966Z,0
2018-01-17T06:40:40.384Z,0
2018-01-17T06:41:20.807Z,0
2018-01-17T06:42:01.220Z,0
2018-01-17T06:42:41.625Z,0
2018-01-17T06:43:22.037Z,0
2018-01-17T06:44:02.437Z,0
2018-01-17T06:44:42.937Z,0
2018-01-17T06:45:23.427Z,0
2018-01-17T06:46:03.826Z,0
2018-01-17T06:46:44.206Z,0
2018-01-17T06:47:24.640Z,0
2018-01-17T06:48:05.023Z,0
2018-01-17T06:48:45.661Z,0
2018-01-17T06:49:26.520Z,0
2018-01-17T06:50:06.768Z,0
2018-01-17T06:50:47.743Z,0
2018-01-17T06:51:28.118Z,0
2018-01-17T06:52:08.699Z,0
2018-01-17T06:52:49.219Z,0
2018-01-17T06:53:30.616Z,0
2018-01-17T06:54:12.833Z,0
2018-01-17T06:54:54.116Z,0
2018-01-17T06:55:34.087Z,0
2018-01-17T06:56:14.619Z,0
2018-01-17T06:56:55.108Z,0
2018-01-17T06:57:35.964Z,0
2018-01-17T06:58:16.128Z,0
2018-01-17T06:58:58.644Z,0
2018-01-17T06:59:39.080Z,0
2018-01-17T07:00:19.435Z,0
2018-01-17T07:00:59.819Z,0
2018-01-17T07:01:41.149Z,0
2018-01-17T07:02:21.520Z,0
2018-01-17T07:03:02.081Z,0
2018-01-17T07:03:42.386Z,0
2018-01-17T07:04:22.807Z,0
2018-01-17T07:05:03.450Z,0
2018-01-17T07:05:43.837Z,0
2018-01-17T07:06:24.249Z,0
2018-01-17T07:07:04.632Z,0
2018-01-17T07:07:45.156Z,0
2018-01-17T07:08:25.659Z,0
2018-01-17T07:09:05.997Z,4
2018-01-17T07:09:46.894Z,0
2018-01-17T07:10:28.633Z,0
2018-01-17T07:11:09.231Z,0
2018-01-17T07:11:49.981Z,0
2018-01-17T07:12:30.448Z,0
2018-01-17T07:13:11.027Z,0
2018-01-17T07:13:51.410Z,0
2018-01-17T07:14:31.866Z,0
2018-01-17T07:15:12.416Z,0
2018-01-17T07:15:52.857Z,0
2018-01-17T07:16:34.002Z,0
2018-01-17T07:17:15.492Z,0
2018-01-17T07:17:56.191Z,0
2018-01-17T07:18:36.183Z,0
2018-01-17T07:19:16.584Z,4
2018-01-17T07:19:57.995Z,4
2018-01-17T07:20:38.421Z,4
2018-01-17T07:21:18.871Z,0
2018-01-17T07:21:59.369Z,4
2018-01-17T07:22:40.630Z,0
2018-01-17T07:23:21.064Z,4
2018-01-17T07:24:01.508Z,4
2018-01-17T07:24:41.916Z,4
2018-01-17T07:25:22.860Z,4
2018-01-17T07:26:03.264Z,8
2018-01-17T07:26:43.661Z,12
2018-01-17T07:27:24.210Z,12
2018-01-17T07:28:04.622Z,12
2018-01-17T07:28:45.358Z,12
2018-01-17T07:29:25.722Z,16
2018-01-17T07:30:06.306Z,16
2018-01-17T07:30:46.760Z,20
2018-01-17T07:31:27.164Z,20
2018-01-17T07:32:07.621Z,24
2018-01-17T07:32:47.997Z,24
2018-01-17T07:33:28.425Z,28
2018-01-17T07:34:08.921Z,28
2018-01-17T07:34:49.277Z,32
2018-01-17T07:35:29.714Z,32
2018-01-17T07:36:10.084Z,36
2018-01-17T07:36:50.430Z,40
2018-01-17T07:37:30.921Z,40
2018-01-17T07:38:11.950Z,48
2018-01-17T07:43:43.373Z,48
2018-01-17T07:47:23.976Z,32
2018-01-17T07:50:01.088Z,40
2018-01-17T07:50:41.554Z,44
2018-01-17T07:51:22.280Z,44
2018-01-17T07:52:03.284Z,52
2018-01-17T07:52:44.270Z,52
2018-01-17T07:53:25.135Z,56
2018-01-17T07:54:06.704Z,64
2018-01-17T07:54:47.860Z,72
2018-01-17T07:55:29.740Z,88
2018-01-17T07:56:10.665Z,104
2018-01-17T07:56:53.089Z,124
2018-01-17T07:57:35.824Z,140
2018-01-17T07:58:18.048Z,152
2018-01-17T07:58:58.889Z,168
2018-01-17T07:59:40.257Z,180
2018-01-17T08:00:22.547Z,192
2018-01-17T08:01:02.933Z,196
2018-01-17T08:01:44.217Z,204
2018-01-17T08:02:25.040Z,208
2018-01-17T08:03:05.191Z,212
2018-01-17T08:03:46.323Z,212
2018-01-17T08:04:27.719Z,208
2018-01-17T08:06:26.451Z,220
2018-01-17T08:07:06.681Z,228
2018-01-17T08:07:47.592Z,244
2018-01-17T08:10:19.229Z,252
2018-01-17T08:11:42.090Z,232
2018-01-17T08:12:22.626Z,232
2018-01-17T08:13:03.768Z,220
2018-01-17T08:13:44.211Z,204
2018-01-17T08:14:27.075Z,208
2018-01-17T08:15:13.501Z,224
2018-01-17T08:32:36.304Z,628
2018-01-17T08:33:17.080Z,576
2018-01-17T08:33:57.872Z,576
2018-01-17T08:34:38.887Z,560
2018-01-17T08:35:20.106Z,548
2018-01-17T08:36:01.418Z,636
2018-01-17T08:36:42.924Z,744
2018-01-17T08:37:24.240Z,764
2018-01-17T08:38:05.336Z,744
2018-01-17T08:38:46.002Z,844
2018-01-17T08:39:27.107Z,920
2018-01-17T08:40:07.862Z,976
2018-01-17T08:40:48.051Z,892
2018-01-17T08:41:28.869Z,744
2018-01-17T08:42:08.976Z,640
2018-01-17T08:42:49.831Z,576
2018-01-17T08:43:30.189Z,540
2018-01-17T08:44:11.491Z,528
2018-01-17T08:44:52.485Z,504
2018-01-17T08:45:33.730Z,532
2018-01-17T08:46:14.669Z,496
2018-01-17T08:46:55.481Z,492
2018-01-17T08:47:36.505Z,484
2018-01-17T08:48:16.887Z,504
2018-01-17T08:48:58.424Z,604
2018-01-17T08:49:38.964Z,652
2018-01-17T08:50:19.650Z,684
2018-01-17T08:51:00.524Z,760
2018-01-17T08:51:40.997Z,768
2018-01-17T08:52:21.524Z,904
2018-01-17T08:53:01.956Z,1004
2018-01-17T08:53:42.627Z,1016
2018-01-17T08:54:23.172Z,1212
2018-01-17T08:55:03.647Z,1276
2018-01-17T08:55:44.129Z,1176
2018-01-17T08:56:24.762Z,1148
2018-01-17T08:57:05.544Z,1308
2018-01-17T08:57:46.228Z,1108
2018-01-17T09:00:18.789Z,1400
2018-01-17T09:00:59.160Z,1436
2018-01-17T09:01:39.715Z,1224
2018-01-17T09:02:20.967Z,920
2018-01-17T09:03:01.702Z,808
2018-01-17T09:03:42.336Z,808
2018-01-17T09:04:22.832Z,1036
2018-01-17T09:05:03.352Z,864
2018-01-17T09:05:44.547Z,888
2018-01-17T09:06:25.067Z,952
2018-01-17T09:07:05.754Z,808
2018-01-17T09:07:46.221Z,864
2018-01-17T09:08:26.760Z,820
2018-01-17T09:09:07.590Z,772
2018-01-17T09:09:47.923Z,736
2018-01-17T09:10:28.615Z,644
2018-01-17T09:11:09.196Z,624
2018-01-17T09:11:50.039Z,676
2018-01-17T09:12:30.860Z,616
2018-01-17T09:13:11.289Z,540
2018-01-17T09:13:52.141Z,516
2018-01-17T09:14:33.124Z,520
2018-01-17T09:15:13.281Z,544
2018-01-17T09:15:53.855Z,564
2018-01-17T09:16:34.220Z,520
2018-01-17T09:17:14.713Z,388
2018-01-17T09:17:55.250Z,352
2018-01-17T09:18:36.482Z,376
2018-01-17T09:19:17.169Z,368
2018-01-17T09:19:57.492Z,344
2018-01-17T09:23:35.585Z,216
2018-01-17T09:28:49.124Z,632
2018-01-17T09:29:29.832Z,668
2018-01-17T09:30:10.286Z,712
2018-01-17T09:30:50.905Z,756
2018-01-17T09:31:31.440Z,892
2018-01-17T09:32:12.218Z,1056
2018-01-17T09:32:52.613Z,1148
2018-01-17T09:33:33.212Z,1236
2018-01-17T09:34:14.090Z,1160
2018-01-17T09:34:54.698Z,908
2018-01-17T09:35:35.048Z,616
2018-01-17T09:36:15.957Z,432
2018-01-17T09:36:56.191Z,300
2018-01-17T09:37:36.893Z,148
2018-01-17T09:38:17.368Z,84
2018-01-17T09:38:58.050Z,60
2018-01-17T09:39:38.702Z,52
2018-01-17T09:40:19.184Z,52
2018-01-17T09:41:00.020Z,56
2018-01-17T09:41:41.247Z,52
2018-01-17T09:42:22.424Z,52
2018-01-17T09:43:02.690Z,48
2018-01-17T09:43:43.485Z,48
2018-01-17T09:44:24.732Z,44
2018-01-17T09:45:06.512Z,36
2018-01-17T09:45:46.776Z,28
2018-01-17T09:46:28.392Z,24
2018-01-17T09:47:09.384Z,20
2018-01-17T09:47:51.527Z,16
2018-01-17T09:48:31.614Z,20
2018-01-17T09:49:12.297Z,16
2018-01-17T09:49:53.333Z,12
2018-01-17T09:50:34.848Z,16
2018-01-17T09:51:17.441Z,20
2018-01-17T09:51:57.555Z,28
2018-01-17T09:52:38.653Z,32
2018-01-17T09:53:22.016Z,32
2018-01-17T09:54:04.356Z,44
2018-01-17T09:56:42.669Z,48
2018-01-17T09:59:17.390Z,76
2018-01-17T09:59:56.430Z,84
2018-01-17T10:00:37.658Z,96
2018-01-17T10:01:19.824Z,108
2018-01-17T10:02:00.880Z,128
2018-01-17T10:02:42.168Z,184
2018-01-17T10:03:22.010Z,252
2018-01-17T10:43:51.664Z,264
2018-01-17T10:44:32.039Z,292
2018-01-17T10:45:12.713Z,356
2018-01-17T10:45:53.371Z,412
2018-01-17T10:46:33.814Z,508
2018-01-17T10:47:14.590Z,536
2018-01-17T10:47:55.848Z,412
2018-01-17T10:48:36.368Z,380
2018-01-17T10:49:18.643Z,348
2018-01-17T10:52:45.504Z,280
2018-01-17T10:53:25.867Z,296
2018-01-17T10:54:06.248Z,304
2018-01-17T10:54:46.898Z,284
2018-01-17T10:55:28.245Z,304
2018-01-17T10:56:08.622Z,272
2018-01-17T10:56:49.457Z,316
2018-01-17T10:57:30.720Z,332
2018-01-17T10:58:11.512Z,388
2018-01-17T10:58:52.844Z,428
2018-01-17T10:59:33.276Z,404
2018-01-17T11:00:13.974Z,376
2018-01-17T11:00:55.130Z,368
2018-01-17T11:01:37.704Z,392
2018-01-17T11:02:19.302Z,444
2018-01-17T11:02:59.484Z,464
2018-01-17T11:03:40.978Z,580
2018-01-17T11:04:23.812Z,700
2018-01-17T11:05:04.107Z,656
2018-01-17T11:05:45.104Z,588
2018-01-17T11:06:27.154Z,584
2018-01-17T11:07:08.322Z,596
2018-01-17T11:07:48.982Z,548
2018-01-17T11:08:29.900Z,516
2018-01-17T11:09:16.435Z,600
2018-01-17T11:10:00.060Z,536
2018-01-17T11:10:42.672Z,496
2018-01-17T11:11:23.375Z,496
2018-01-17T11:16:15.889Z,532
2018-01-17T11:16:56.500Z,620
2018-01-17T11:17:37.282Z,644
2018-01-17T11:18:18.566Z,736
2018-01-17T11:20:34.392Z,900
2018-01-17T11:21:15.358Z,916
2018-01-17T11:21:56.046Z,820
2018-01-17T11:22:36.785Z,656
2018-01-17T11:23:17.657Z,540
2018-01-17T11:23:58.135Z,460
2018-01-17T11:24:38.773Z,420
2018-01-17T11:25:19.892Z,516
2018-01-17T11:26:00.254Z,612
2018-01-17T11:26:40.781Z,640
2018-01-17T11:27:21.141Z,632
2018-01-17T11:28:01.880Z,652
2018-01-17T11:28:42.268Z,684
2018-01-17T11:29:23.425Z,748
2018-01-17T11:30:51.261Z,912
2018-01-17T11:31:32.524Z,1040
2018-01-17T11:32:13.678Z,1136
2018-01-17T11:32:55.208Z,1200
2018-01-17T11:33:36.188Z,1220
2018-01-17T11:34:16.112Z,1264
2018-01-17T11:34:57.767Z,1268
2018-01-17T11:35:39.005Z,1264
2018-01-17T11:36:20.830Z,1196
2018-01-17T11:37:01.758Z,1144
2018-01-17T11:37:43.010Z,1088
2018-01-17T11:38:24.219Z,1060
2018-01-17T11:39:04.734Z,1036
2018-01-17T11:39:46.225Z,1020
2018-01-17T11:40:28.062Z,1020
2018-01-17T11:41:08.502Z,1024
2018-01-17T11:41:50.232Z,1020
2018-01-17T11:42:30.104Z,1024
2018-01-17T11:43:10.527Z,1044
2018-01-17T11:43:51.443Z,1036
2018-01-17T11:44:32.006Z,1052
2018-01-17T11:45:19.238Z,1092
2018-01-17T11:46:02.734Z,1160
2018-01-17T11:46:45.537Z,1184
2018-01-17T11:47:26.684Z,1176
2018-01-17T11:48:08.225Z,1136
2018-01-17T11:48:49.270Z,1092
2018-01-17T11:49:29.872Z,1064
2018-01-17T11:50:10.338Z,1056
2018-01-17T11:50:50.767Z,1072
2018-01-17T11:51:31.294Z,1028
2018-01-17T11:52:11.854Z,972
2018-01-17T11:52:52.499Z,820
2018-01-17T11:53:33.152Z,632
2018-01-17T11:54:14.283Z,548
2018-01-17T11:54:55.125Z,556
2018-01-17T11:55:36.223Z,616
2018-01-17T11:56:16.715Z,732
2018-01-17T11:56:57.536Z,772
2018-01-17T11:57:38.169Z,792
2018-01-17T11:58:18.881Z,756
2018-01-17T11:58:59.983Z,596
2018-01-17T11:59:40.720Z,480
2018-01-17T12:00:21.858Z,464
2018-01-17T12:01:02.274Z,348
2018-01-17T12:01:43.009Z,292
2018-01-17T12:02:23.639Z,256
2018-01-17T12:03:04.395Z,216
2018-01-17T12:03:45.958Z,200
2018-01-17T12:04:26.910Z,200
2018-01-17T12:05:07.604Z,236
2018-01-17T12:05:48.053Z,220
2018-01-17T12:06:28.467Z,224
2018-01-17T12:07:09.504Z,236
2018-01-17T12:07:49.983Z,292
2018-01-17T12:08:30.491Z,364
2018-01-17T12:09:11.114Z,420
2018-01-17T12:09:52.267Z,304
2018-01-17T12:10:32.571Z,304
2018-01-17T12:11:13.302Z,280
2018-01-17T12:11:54.224Z,248
2018-01-17T12:12:35.120Z,228
2018-01-17T12:13:15.898Z,208
2018-01-17T12:13:56.624Z,216
2018-01-17T12:14:38.886Z,204
2018-01-17T12:15:19.561Z,192
2018-01-17T12:16:00.075Z,168
2018-01-17T12:16:40.773Z,180
2018-01-17T12:17:21.346Z,212
2018-01-17T12:18:01.989Z,260
2018-01-17T12:18:42.553Z,296
2018-01-17T12:19:22.992Z,316
2018-01-17T12:20:04.495Z,276
2018-01-17T12:20:44.936Z,272
2018-01-17T12:21:25.749Z,320